createdAt,value
2018-06-23T00:01:30.902Z,9.10
2018-06-23T00:03:59.334Z,9.10
2018-06-23T00:06:28.271Z,9.10
2018-06-23T00:08:56.788Z,9.00
2018-06-23T00:11:25.392Z,9.10
2018-06-23T00:13:53.845Z,9.00
2018-06-23T00:16:22.810Z,8.90
2018-06-23T00:18:51.324Z,8.90
2018-06-23T00:21:19.939Z,8.90
2018-06-23T00:23:48.377Z,9.00
2018-06-23T00:26:23.170Z,8.90
2018-06-23T00:28:51.683Z,8.90
2018-06-23T00:31:20.097Z,9.00
2018-06-23T00:33:48.846Z,8.90
2018-06-23T00:36:17.288Z,8.80
2018-06-23T00:38:45.729Z,8.80
2018-06-23T00:41:15.224Z,8.90
2018-06-23T00:43:43.704Z,8.80
2018-06-23T00:46:12.218Z,8.70
2018-06-23T00:48:41.026Z,8.80
2018-06-23T00:51:11.344Z,8.70
2018-06-23T00:53:40.536Z,8.70
2018-06-23T00:56:09.520Z,8.80
2018-06-23T00:58:49.239Z,8.80
2018-06-23T01:01:17.919Z,8.80
2018-06-23T01:03:46.518Z,8.90
2018-06-23T01:06:14.942Z,9.00
2018-06-23T01:08:43.374Z,9.10
2018-06-23T01:11:11.901Z,9.00
2018-06-23T01:13:41.032Z,8.90
2018-06-23T01:16:09.829Z,8.80
2018-06-23T01:18:38.351Z,8.80
2018-06-23T01:21:06.872Z,8.80
2018-06-23T01:23:35.776Z,8.60
2018-06-23T01:26:04.561Z,8.60
2018-06-23T01:28:33.079Z,8.50
2018-06-23T01:31:01.529Z,8.40
2018-06-23T01:33:30.073Z,8.50
2018-06-23T01:35:58.624Z,8.50
2018-06-23T01:38:27.176Z,8.60
2018-06-23T01:40:55.624Z,8.60
2018-06-23T01:43:24.242Z,8.60
2018-06-23T01:45:52.716Z,8.60
2018-06-23T01:48:21.285Z,8.70
2018-06-23T01:50:49.677Z,8.70
2018-06-23T01:53:18.301Z,8.70
2018-06-23T01:55:46.853Z,8.80
2018-06-23T01:58:15.739Z,8.80
2018-06-23T02:00:44.253Z,8.90
2018-06-23T02:03:12.810Z,8.70
2018-06-23T02:05:41.957Z,8.60
2018-06-23T02:08:11.464Z,8.50
2018-06-23T02:10:40.243Z,8.40
2018-06-23T02:15:42.392Z,8.40
2018-06-23T02:21:47.936Z,8.30
2018-06-23T09:21:37.548Z,12.00
2018-06-23T09:39:54.167Z,12.10
2018-06-23T09:52:41.791Z,12.20
2018-06-23T09:55:10.313Z,12.30
2018-06-23T09:57:38.800Z,12.30
2018-06-23T10:00:07.282Z,12.40
2018-06-23T10:02:35.909Z,12.40
2018-06-23T10:05:04.432Z,12.60
2018-06-23T10:07:32.960Z,12.70
2018-06-23T10:10:01.594Z,12.70
2018-06-23T10:12:30.163Z,12.70
2018-06-23T10:14:58.611Z,12.70
2018-06-23T10:17:27.216Z,12.70
2018-06-23T10:19:55.692Z,12.70
2018-06-23T10:22:24.275Z,12.70
2018-06-23T10:24:52.697Z,12.70
2018-06-23T10:27:21.230Z,12.70
2018-06-23T10:29:50.936Z,12.70
2018-06-23T10:32:20.278Z,12.70
2018-06-23T10:34:49.261Z,12.80
2018-06-23T10:37:18.023Z,12.80
2018-06-23T10:39:46.580Z,12.80
2018-06-23T10:42:15.206Z,12.90
2018-06-23T10:44:43.708Z,12.90
2018-06-23T10:47:12.240Z,13.00
2018-06-23T10:49:40.760Z,12.90
2018-06-23T10:52:09.392Z,13.10
2018-06-23T10:54:37.889Z,13.00
2018-06-23T10:57:06.828Z,12.90
2018-06-23T10:59:35.299Z,13.00
2018-06-23T11:02:03.832Z,13.10
2018-06-23T11:04:32.759Z,13.20
2018-06-23T11:07:01.461Z,13.10
2018-06-23T11:09:30.017Z,13.20
2018-06-23T11:11:58.884Z,13.30
2018-06-23T11:14:27.371Z,13.40
2018-06-23T11:16:55.955Z,13.50
2018-06-23T11:19:24.524Z,13.50
2018-06-23T11:21:52.991Z,13.60
2018-06-23T11:24:21.453Z,13.50
2018-06-23T11:26:50.160Z,13.60
2018-06-23T11:29:19.770Z,13.70
2018-06-23T11:31:49.177Z,13.80
2018-06-23T11:34:17.711Z,14.00
2018-06-23T11:36:46.375Z,14.00
2018-06-23T11:39:14.852Z,13.90
2018-06-23T11:41:43.489Z,14.00
2018-06-23T11:44:12.146Z,13.90
2018-06-23T11:46:40.727Z,13.90
2018-06-23T11:49:09.331Z,13.90
2018-06-23T11:51:37.952Z,13.90
2018-06-23T11:54:06.504Z,13.90
2018-06-23T11:56:35.146Z,14.00
2018-06-23T11:59:03.715Z,14.10
2018-06-23T12:01:32.790Z,14.10
2018-06-23T12:04:01.300Z,14.10
2018-06-23T12:06:29.764Z,14.10
2018-06-23T12:08:58.231Z,14.00
2018-06-23T12:11:26.753Z,14.00
2018-06-23T12:13:55.260Z,14.10
2018-06-23T12:16:23.863Z,14.20
2018-06-23T12:18:52.324Z,14.30
2018-06-23T12:21:20.871Z,14.20
2018-06-23T12:23:50.320Z,14.10
2018-06-23T12:26:19.310Z,14.10
2018-06-23T12:28:48.123Z,14.10
2018-06-23T12:31:16.701Z,14.10
2018-06-23T12:33:45.121Z,14.30
2018-06-23T12:36:13.618Z,14.50
2018-06-23T12:38:42.135Z,14.60
2018-06-23T12:41:10.681Z,14.50
2018-06-23T12:43:39.161Z,14.60
2018-06-23T12:46:07.750Z,14.60
2018-06-23T12:48:36.225Z,14.70
2018-06-23T12:51:04.909Z,14.70
2018-06-23T12:53:33.376Z,14.90
2018-06-23T12:56:01.808Z,14.90
2018-06-23T12:58:30.237Z,15.00
2018-06-23T13:00:58.976Z,14.90
2018-06-23T13:03:27.646Z,15.00
2018-06-23T13:05:56.604Z,15.00
2018-06-23T13:08:25.113Z,15.00
2018-06-23T13:10:53.664Z,15.00
2018-06-23T13:13:22.150Z,15.20
2018-06-23T13:15:50.796Z,15.20
2018-06-23T13:18:20.140Z,15.10
2018-06-23T13:20:49.441Z,15.20
2018-06-23T13:23:18.654Z,15.20
2018-06-23T13:25:47.201Z,15.20
2018-06-23T13:28:15.707Z,15.10
2018-06-23T13:30:44.190Z,15.10
2018-06-23T13:33:12.653Z,15.00
2018-06-23T13:35:41.211Z,14.90
2018-06-23T13:38:09.676Z,14.90
2018-06-23T13:40:38.174Z,14.90
2018-06-23T13:43:06.809Z,15.10
2018-06-23T13:45:35.353Z,15.30
2018-06-23T13:50:33.388Z,15.50
2018-06-23T13:53:01.858Z,15.60
2018-06-23T13:55:30.788Z,15.50
2018-06-23T13:57:59.303Z,15.60
2018-06-23T14:00:28.811Z,15.70
2018-06-23T14:02:57.677Z,15.70
2018-06-23T14:05:26.327Z,15.70
2018-06-23T14:07:54.828Z,15.70
2018-06-23T14:10:23.336Z,15.70
2018-06-23T14:12:51.756Z,15.70
2018-06-23T14:15:21.333Z,15.70
2018-06-23T14:17:50.442Z,15.60
2018-06-23T14:20:20.977Z,15.70
2018-06-23T14:22:50.443Z,15.70
2018-06-23T14:25:19.688Z,15.60
2018-06-23T14:27:48.545Z,15.60
2018-06-23T14:30:18.260Z,15.50
2018-06-23T14:32:46.820Z,15.50
2018-06-23T14:35:15.592Z,15.60
2018-06-23T14:37:44.085Z,15.50
2018-06-23T14:40:14.216Z,15.40
2018-06-23T14:42:43.300Z,15.50
2018-06-23T14:45:11.898Z,15.50
2018-06-23T14:47:40.380Z,15.40
2018-06-23T14:50:08.959Z,15.50
2018-06-23T14:52:38.101Z,15.70
2018-06-23T14:55:06.742Z,15.90
2018-06-23T14:57:35.340Z,16.00
2018-06-23T15:00:04.020Z,16.10
2018-06-23T15:02:32.467Z,16.10
2018-06-23T15:05:00.998Z,16.10
2018-06-23T15:07:29.777Z,16.00
2018-06-23T15:10:09.507Z,16.00
2018-06-23T15:12:49.155Z,15.90
2018-06-23T15:15:17.728Z,15.90
2018-06-23T15:17:46.369Z,15.90
2018-06-23T15:20:15.189Z,15.80
2018-06-23T15:22:43.753Z,15.90
2018-06-23T15:25:12.254Z,15.90
2018-06-23T15:27:40.774Z,15.90
2018-06-23T15:30:09.227Z,15.80
2018-06-23T15:32:37.737Z,15.80
2018-06-23T15:35:06.724Z,15.80
2018-06-23T15:37:35.172Z,15.70
2018-06-23T15:40:03.796Z,15.70
2018-06-23T15:42:32.360Z,15.80
2018-06-23T15:45:00.769Z,15.80
2018-06-23T15:47:29.283Z,15.80
2018-06-23T15:49:57.807Z,15.70
2018-06-23T15:52:26.309Z,15.70
2018-06-23T15:54:54.829Z,15.80
2018-06-23T15:57:23.378Z,15.70
2018-06-23T15:59:51.898Z,15.60
2018-06-23T16:02:21.283Z,15.60
2018-06-23T16:04:50.188Z,15.60
2018-06-23T16:07:19.442Z,15.60
2018-06-23T16:09:47.870Z,15.60
2018-06-23T16:12:16.707Z,15.50
2018-06-23T16:14:45.325Z,15.60
2018-06-23T16:17:13.958Z,15.50
2018-06-23T16:19:42.433Z,15.50
2018-06-23T16:22:10.940Z,15.50
2018-06-23T16:24:39.447Z,15.40
2018-06-23T16:27:07.913Z,15.40
2018-06-23T16:29:36.338Z,15.40
2018-06-23T16:32:04.898Z,15.30
2018-06-23T16:34:33.426Z,15.20
2018-06-23T16:37:02.487Z,15.20
2018-06-23T16:39:31.019Z,15.20
2018-06-23T16:41:59.939Z,15.20
2018-06-23T16:44:28.524Z,15.20
2018-06-23T16:46:57.073Z,15.10
2018-06-23T16:49:25.583Z,15.00
2018-06-23T16:51:55.110Z,14.90
2018-06-23T16:54:23.564Z,15.10
2018-06-23T16:56:52.209Z,15.10
2018-06-23T16:59:21.317Z,15.00
2018-06-23T17:01:50.208Z,15.10
2018-06-23T17:04:18.930Z,15.10
2018-06-23T17:06:47.657Z,15.00
2018-06-23T17:09:16.265Z,15.00
2018-06-23T17:11:44.883Z,15.00
2018-06-23T17:14:13.430Z,15.00
2018-06-23T17:16:41.995Z,14.90
2018-06-23T17:19:10.446Z,14.90
2018-06-23T17:21:38.960Z,14.90
2018-06-23T17:24:08.184Z,15.00
2018-06-23T17:26:36.775Z,15.00
2018-06-23T17:29:05.241Z,15.00
2018-06-23T17:31:34.854Z,15.10
2018-06-23T17:34:03.619Z,15.10
2018-06-23T17:36:32.168Z,15.00
2018-06-23T17:39:01.699Z,15.00
2018-06-23T17:41:32.215Z,15.00
2018-06-23T17:44:01.312Z,14.90
2018-06-23T17:46:30.000Z,14.90
2018-06-23T17:48:58.429Z,14.90
2018-06-23T17:51:27.251Z,14.90
2018-06-23T17:53:55.725Z,14.90
2018-06-23T17:56:24.672Z,14.90
2018-06-23T17:58:53.090Z,14.90
2018-06-23T18:01:21.604Z,14.90
2018-06-23T18:03:50.445Z,14.90
2018-06-23T18:06:18.877Z,14.90
2018-06-23T18:08:47.622Z,14.90
2018-06-23T18:11:17.302Z,14.90
2018-06-23T18:13:46.348Z,14.90
2018-06-23T18:16:15.481Z,14.90
2018-06-23T18:18:44.314Z,14.90
2018-06-23T18:21:12.791Z,14.90
2018-06-23T18:23:41.498Z,14.80
2018-06-23T18:26:09.984Z,14.70
2018-06-23T18:28:38.512Z,14.80
2018-06-23T18:31:06.997Z,14.80
2018-06-23T18:33:35.974Z,14.70
2018-06-23T18:36:04.439Z,14.70
2018-06-23T18:38:32.949Z,14.70
2018-06-23T18:41:01.412Z,14.70
2018-06-23T18:43:29.972Z,14.70
2018-06-23T18:45:58.406Z,14.70
2018-06-23T18:48:26.928Z,14.80
2018-06-23T18:50:55.361Z,14.80
2018-06-23T18:53:23.836Z,14.70
2018-06-23T18:55:52.600Z,14.70
2018-06-23T18:58:21.288Z,14.70
2018-06-23T19:00:49.865Z,14.70
2018-06-23T19:03:18.457Z,14.70
2018-06-23T19:05:46.875Z,14.60
2018-06-23T19:08:15.621Z,14.60
2018-06-23T19:10:44.104Z,14.70
2018-06-23T19:13:13.110Z,14.60
2018-06-23T19:15:41.639Z,14.50
2018-06-23T19:18:10.328Z,14.50
2018-06-23T19:20:38.801Z,14.40
2018-06-23T19:23:07.279Z,14.50
2018-06-23T19:25:36.447Z,14.50
2018-06-23T19:28:05.084Z,14.50
2018-06-23T19:30:33.539Z,14.40
2018-06-23T19:33:02.044Z,14.50
2018-06-23T19:35:30.469Z,14.30
2018-06-23T19:37:58.974Z,14.40
2018-06-23T19:40:27.380Z,14.30
2018-06-23T19:42:56.498Z,14.20
2018-06-23T19:45:25.791Z,14.20
2018-06-23T19:47:55.278Z,14.30
2018-06-23T19:50:23.843Z,14.30
2018-06-23T19:54:21.757Z,14.30
2018-06-23T19:56:50.174Z,14.20
2018-06-23T19:59:19.138Z,14.20
2018-06-23T20:01:47.680Z,14.10
2018-06-23T20:04:16.952Z,13.90
2018-06-23T20:06:46.227Z,14.00
2018-06-23T20:09:14.825Z,13.90
2018-06-23T20:11:43.302Z,13.80
2018-06-23T20:14:11.877Z,13.90
2018-06-23T20:16:40.485Z,13.90
2018-06-23T20:19:09.230Z,13.90
2018-06-23T20:21:37.733Z,14.00
2018-06-23T20:24:06.451Z,13.90
2018-06-23T20:26:35.293Z,13.80
2018-06-23T20:29:03.824Z,13.80
2018-06-23T20:31:32.380Z,13.80
2018-06-23T20:34:01.113Z,13.70
2018-06-23T20:36:29.611Z,13.50
2018-06-23T20:38:58.218Z,13.50
2018-06-23T20:41:26.658Z,13.40
2018-06-23T20:43:55.282Z,13.30
2018-06-23T20:46:23.804Z,13.30
2018-06-23T20:48:52.333Z,13.30
2018-06-23T20:51:20.927Z,13.30
2018-06-23T20:53:49.576Z,13.30
2018-06-23T20:56:18.060Z,13.30
2018-06-23T20:58:46.861Z,13.30
2018-06-23T21:01:16.131Z,13.20
2018-06-23T21:03:44.888Z,13.20
2018-06-23T21:06:13.368Z,13.30
2018-06-23T21:08:41.869Z,13.30
2018-06-23T21:11:10.375Z,13.30
2018-06-23T21:13:38.931Z,13.30
2018-06-23T21:16:07.414Z,13.30
2018-06-23T21:18:35.916Z,13.20
2018-06-23T21:21:04.819Z,13.30
2018-06-23T21:23:33.445Z,13.30
2018-06-23T21:26:01.893Z,13.20
2018-06-23T21:28:30.527Z,13.30
2018-06-23T21:30:59.018Z,13.30
2018-06-23T21:33:27.692Z,13.20
2018-06-23T21:35:56.608Z,13.20
2018-06-23T21:38:25.511Z,13.20
2018-06-23T21:40:54.298Z,13.20
2018-06-23T21:43:22.797Z,13.20
2018-06-23T21:45:51.249Z,13.20
2018-06-23T21:48:19.771Z,13.20
2018-06-23T21:50:48.306Z,13.10
2018-06-23T21:53:16.956Z,13.00
2018-06-23T21:55:45.462Z,12.90
2018-06-23T21:58:14.004Z,12.90
2018-06-23T22:00:44.118Z,12.90
2018-06-23T22:03:13.778Z,12.90
2018-06-23T22:05:42.261Z,12.90
2018-06-23T22:08:11.144Z,12.90
2018-06-23T22:10:39.997Z,12.80
2018-06-23T22:13:08.477Z,12.70
2018-06-23T22:15:36.953Z,12.70
2018-06-23T22:18:05.817Z,12.60
2018-06-23T22:20:34.280Z,12.60
2018-06-23T22:23:02.826Z,12.60
2018-06-23T22:25:31.295Z,12.70
2018-06-23T22:27:59.766Z,12.70
2018-06-23T22:30:28.244Z,12.70
2018-06-23T22:32:56.852Z,12.70
2018-06-23T22:35:25.362Z,12.80
2018-06-23T22:37:54.047Z,12.80
2018-06-23T22:40:22.512Z,12.80
2018-06-23T22:42:51.038Z,12.80
2018-06-23T22:45:19.529Z,12.70
2018-06-23T22:47:48.173Z,12.70
2018-06-23T22:50:17.369Z,12.70
2018-06-23T22:52:46.579Z,12.70
2018-06-23T22:55:15.836Z,12.60
2018-06-23T22:57:44.565Z,12.60
2018-06-23T23:00:14.118Z,12.60
2018-06-23T23:02:43.447Z,12.60
2018-06-23T23:05:12.353Z,12.60
2018-06-23T23:07:41.473Z,12.60
2018-06-23T23:10:10.893Z,12.60
2018-06-23T23:12:39.720Z,12.60
2018-06-23T23:15:08.512Z,12.50
2018-06-23T23:17:37.105Z,12.40
2018-06-23T23:20:06.188Z,12.30
2018-06-23T23:22:34.669Z,12.30
2018-06-23T23:25:03.200Z,12.30
2018-06-23T23:27:31.817Z,12.30
2018-06-23T23:30:00.277Z,12.20
2018-06-23T23:32:28.911Z,12.20
2018-06-23T23:34:57.392Z,12.20
2018-06-23T23:37:25.964Z,12.20
2018-06-23T23:39:54.455Z,12.20
2018-06-23T23:42:23.114Z,12.20
2018-06-23T23:44:51.613Z,12.10
2018-06-23T23:47:20.603Z,12.00
2018-06-23T23:49:49.121Z,12.00
2018-06-23T23:52:17.951Z,11.80
2018-06-23T23:54:46.847Z,11.80
2018-06-23T23:57:15.898Z,11.90
2018-06-23T23:59:44.346Z,11.90
